createdAt,value
2019-01-20T00:02:12.504Z,17.27
2019-01-20T00:04:43.674Z,16.40
2019-01-20T00:07:14.738Z,16.10
2019-01-20T00:09:45.895Z,13.73
2019-01-20T00:12:16.947Z,13.50
2019-01-20T00:14:48.177Z,22.03
2019-01-20T00:17:19.068Z,24.37
2019-01-20T00:19:50.226Z,28.67
2019-01-20T00:22:20.876Z,34.87
2019-01-20T00:24:52.302Z,28.20
2019-01-20T00:27:22.916Z,32.93
2019-01-20T00:29:53.957Z,27.27
2019-01-20T00:32:25.061Z,29.90
2019-01-20T00:34:56.135Z,30.00
2019-01-20T00:37:26.786Z,27.23
2019-01-20T00:39:57.978Z,31.13
2019-01-20T00:42:29.122Z,32.93
2019-01-20T00:45:02.950Z,30.17
2019-01-20T00:47:32.890Z,31.70
2019-01-20T00:50:03.957Z,32.80
2019-01-20T00:52:34.928Z,28.77
2019-01-20T00:55:06.889Z,30.60
2019-01-20T00:57:40.348Z,29.83
2019-01-20T01:00:23.334Z,32.00
2019-01-20T01:02:54.343Z,32.60
2019-01-20T01:05:25.083Z,32.63
2019-01-20T01:07:56.120Z,29.10
2019-01-20T01:10:26.757Z,25.60
2019-01-20T01:12:59.420Z,14.03
2019-01-20T01:15:30.544Z,32.07
2019-01-20T01:18:01.932Z,18.83
2019-01-20T01:20:33.098Z,20.47
2019-01-20T01:23:04.106Z,25.63
2019-01-20T01:25:35.131Z,19.83
2019-01-20T01:28:06.413Z,20.30
2019-01-20T01:30:37.573Z,22.53
2019-01-20T01:33:08.487Z,19.43
2019-01-20T01:35:39.725Z,23.03
2019-01-20T01:38:10.761Z,22.77
2019-01-20T01:40:42.010Z,17.93
2019-01-20T01:43:13.048Z,20.80
2019-01-20T01:45:44.065Z,17.93
2019-01-20T01:48:15.095Z,27.13
2019-01-20T01:50:46.070Z,24.20
2019-01-20T01:53:17.534Z,23.57
2019-01-20T01:55:48.749Z,21.47
2019-01-20T01:58:19.539Z,19.53
2019-01-20T02:00:50.652Z,20.00
2019-01-20T02:03:21.274Z,20.00
2019-01-20T02:05:52.345Z,24.30
2019-01-20T02:08:23.096Z,20.53
2019-01-20T02:10:54.369Z,19.07
2019-01-20T02:13:25.448Z,36.10
2019-01-20T02:15:56.608Z,22.87
2019-01-20T02:18:29.740Z,17.07
2019-01-20T02:21:02.514Z,18.70
2019-01-20T02:23:33.630Z,17.73
2019-01-20T02:26:04.646Z,19.33
2019-01-20T02:28:35.692Z,20.30
2019-01-20T02:31:07.035Z,18.60
2019-01-20T02:33:41.535Z,23.13
2019-01-20T02:36:12.874Z,20.30
2019-01-20T02:38:44.028Z,16.57
2019-01-20T02:41:14.946Z,19.90
2019-01-20T02:43:46.032Z,22.50
2019-01-20T02:46:17.056Z,19.97
2019-01-20T02:48:48.095Z,19.63
2019-01-20T02:51:18.892Z,21.13
2019-01-20T02:53:53.937Z,22.73
2019-01-20T02:56:24.532Z,20.90
2019-01-20T02:58:55.595Z,19.73
2019-01-20T03:01:26.505Z,32.13
2019-01-20T03:03:57.639Z,21.40
2019-01-20T03:06:28.800Z,24.33
2019-01-20T03:08:59.971Z,21.80
2019-01-20T03:11:31.434Z,27.37
2019-01-20T03:14:02.493Z,32.10
2019-01-20T03:16:33.543Z,25.83
2019-01-20T03:19:05.525Z,24.13
2019-01-20T03:21:36.635Z,25.10
2019-01-20T03:24:07.777Z,25.60
2019-01-20T03:26:38.720Z,21.73
2019-01-20T03:29:09.694Z,28.60
2019-01-20T03:31:40.737Z,22.03
2019-01-20T03:34:11.953Z,24.33
2019-01-20T03:36:43.055Z,23.27
2019-01-20T03:39:14.077Z,22.30
2019-01-20T03:41:45.174Z,28.03
2019-01-20T03:44:16.290Z,22.80
2019-01-20T03:46:48.413Z,20.50
2019-01-20T03:49:19.324Z,16.20
2019-01-20T03:51:50.325Z,19.93
2019-01-20T03:54:21.384Z,18.30
2019-01-20T03:56:52.894Z,18.07
2019-01-20T03:59:29.096Z,17.00
2019-01-20T04:02:00.291Z,18.00
2019-01-20T04:04:31.316Z,20.20
2019-01-20T04:07:02.223Z,16.17
2019-01-20T04:09:33.394Z,27.57
2019-01-20T04:12:04.383Z,19.57
2019-01-20T04:14:35.607Z,21.50
2019-01-20T04:17:06.897Z,16.10
2019-01-20T04:19:45.081Z,17.43
2019-01-20T04:22:17.163Z,17.87
2019-01-20T04:24:48.361Z,15.90
2019-01-20T04:27:19.327Z,22.00
2019-01-20T04:29:50.344Z,16.63
2019-01-20T04:32:21.043Z,13.00
2019-01-20T04:34:52.058Z,18.33
2019-01-20T04:37:23.345Z,14.77
2019-01-20T04:39:54.464Z,14.20
2019-01-20T04:42:29.185Z,13.70
2019-01-20T04:44:58.627Z,14.17
2019-01-20T04:47:29.978Z,15.07
2019-01-20T04:50:01.102Z,15.00
2019-01-20T04:52:32.339Z,13.50
2019-01-20T04:55:03.731Z,16.93
2019-01-20T04:57:35.018Z,15.67
2019-01-20T05:00:08.240Z,17.30
2019-01-20T05:02:39.400Z,18.20
2019-01-20T05:05:10.555Z,17.10
2019-01-20T05:07:41.398Z,18.70
2019-01-20T05:10:13.576Z,21.00
2019-01-20T05:12:44.578Z,15.40
2019-01-20T05:15:17.907Z,17.73
2019-01-20T05:17:49.000Z,16.80
2019-01-20T05:20:20.021Z,17.60
2019-01-20T05:22:51.147Z,16.53
2019-01-20T05:25:22.016Z,15.57
2019-01-20T05:27:53.050Z,15.50
2019-01-20T05:30:25.758Z,14.43
2019-01-20T05:32:56.919Z,16.80
2019-01-20T05:35:28.142Z,16.67
2019-01-20T05:37:59.057Z,15.80
2019-01-20T05:40:30.198Z,16.80
2019-01-20T05:43:01.731Z,15.87
2019-01-20T05:45:38.384Z,17.17
2019-01-20T05:48:09.292Z,14.70
2019-01-20T05:50:40.708Z,18.20
2019-01-20T05:53:11.812Z,22.43
2019-01-20T05:55:42.971Z,18.53
2019-01-20T05:58:13.984Z,16.90
2019-01-20T06:00:45.012Z,20.50
2019-01-20T06:03:15.951Z,18.17
2019-01-20T06:05:47.069Z,18.80
2019-01-20T06:08:18.040Z,20.53
2019-01-20T06:10:49.166Z,18.30
2019-01-20T06:17:20.328Z,19.30
2019-01-20T06:19:51.505Z,16.27
2019-01-20T06:22:22.565Z,19.60
2019-01-20T06:24:53.908Z,20.60
2019-01-20T06:27:25.216Z,17.27
2019-01-20T06:29:56.263Z,16.23
2019-01-20T06:32:26.947Z,19.77
2019-01-20T06:34:57.998Z,17.80
2019-01-20T06:37:28.723Z,17.53
2019-01-20T06:39:59.804Z,18.20
2019-01-20T06:42:31.741Z,17.73
2019-01-20T06:45:02.875Z,21.43
2019-01-20T06:47:33.914Z,17.83
2019-01-20T06:50:08.815Z,18.83
2019-01-20T06:52:40.089Z,21.03
2019-01-20T06:55:12.152Z,20.73
2019-01-20T06:57:43.994Z,21.77
2019-01-20T07:00:17.486Z,21.00
2019-01-20T07:02:48.732Z,21.60
2019-01-20T07:05:19.803Z,23.40
2019-01-20T07:07:51.257Z,20.03
2019-01-20T07:10:22.364Z,23.83
2019-01-20T07:12:53.735Z,22.47
2019-01-20T07:15:26.054Z,22.73
2019-01-20T07:17:57.195Z,24.13
2019-01-20T07:20:28.293Z,24.77
2019-01-20T07:22:59.405Z,25.40
2019-01-20T07:25:30.474Z,27.37
2019-01-20T07:28:01.773Z,26.63
2019-01-20T07:30:33.170Z,23.00
2019-01-20T07:33:05.785Z,21.70
2019-01-20T07:35:36.831Z,24.10
2019-01-20T07:38:07.935Z,23.60
2019-01-20T07:40:38.943Z,24.13
2019-01-20T07:43:16.766Z,28.40
2019-01-20T07:45:43.118Z,24.23
2019-01-20T07:48:14.332Z,21.23
2019-01-20T07:50:45.442Z,27.57
2019-01-20T07:53:16.694Z,22.53
2019-01-20T07:55:47.840Z,25.40
2019-01-20T07:58:19.046Z,18.83
2019-01-20T08:00:50.146Z,20.67
2019-01-20T08:03:21.086Z,19.90
2019-01-20T08:05:52.143Z,16.40
2019-01-20T08:08:23.871Z,19.77
2019-01-20T08:10:56.722Z,20.27
2019-01-20T08:13:28.319Z,18.20
2019-01-20T08:15:59.442Z,17.93
2019-01-20T08:18:30.574Z,20.77
2019-01-20T08:21:01.625Z,18.47
2019-01-20T08:23:32.940Z,21.97
2019-01-20T08:26:04.243Z,18.07
2019-01-20T08:28:35.409Z,21.82
2019-01-20T08:31:06.451Z,14.97
2019-01-20T08:33:37.688Z,13.23
2019-01-20T08:36:12.185Z,16.93
2019-01-20T08:38:43.895Z,17.00
2019-01-20T08:41:14.871Z,16.27
2019-01-20T08:43:46.194Z,15.50
2019-01-20T08:47:15.692Z,19.03
2019-01-20T08:49:46.867Z,14.30
2019-01-20T08:52:20.612Z,14.23
2019-01-20T08:54:51.652Z,16.10
2019-01-20T08:57:22.348Z,15.80
2019-01-20T08:59:57.744Z,17.20
2019-01-20T09:02:28.364Z,17.53
2019-01-20T09:04:59.870Z,16.40
2019-01-20T09:07:30.911Z,20.30
2019-01-20T09:10:02.182Z,16.33
2019-01-20T09:12:34.511Z,17.83
2019-01-20T09:15:07.144Z,22.03
2019-01-20T09:17:43.248Z,16.63
2019-01-20T09:20:20.216Z,15.93
2019-01-20T09:22:51.188Z,14.83
2019-01-20T09:25:22.524Z,15.90
2019-01-20T09:27:53.467Z,16.83
2019-01-20T09:30:24.263Z,18.37
2019-01-20T09:32:55.389Z,15.03
2019-01-20T09:35:27.341Z,14.83
2019-01-20T09:37:58.486Z,16.00
2019-01-20T09:40:29.442Z,19.53
2019-01-20T09:43:08.793Z,17.00
2019-01-20T09:45:40.973Z,13.57
2019-01-20T09:48:12.061Z,17.20
2019-01-20T09:50:43.206Z,18.10
2019-01-20T09:53:14.348Z,14.10
2019-01-20T09:55:45.491Z,16.83
2019-01-20T09:58:16.638Z,17.13
2019-01-20T10:00:47.878Z,16.50
2019-01-20T10:03:19.343Z,18.60
2019-01-20T10:05:51.301Z,15.00
2019-01-20T10:08:23.163Z,12.87
2019-01-20T10:10:54.380Z,18.87
2019-01-20T10:13:25.139Z,14.10
2019-01-20T10:15:56.409Z,14.40
2019-01-20T10:18:27.113Z,13.33
2019-01-20T10:20:58.222Z,10.27
2019-01-20T10:23:29.443Z,9.67
2019-01-20T10:26:00.782Z,13.67
2019-01-20T10:28:31.894Z,14.20
2019-01-20T10:31:03.332Z,12.70
2019-01-20T10:33:34.688Z,13.57
2019-01-20T10:36:06.848Z,11.50
2019-01-20T10:38:38.954Z,9.73
2019-01-20T10:41:11.100Z,7.63
2019-01-20T10:43:42.610Z,8.30
2019-01-20T10:46:13.799Z,11.53
2019-01-20T10:48:45.011Z,6.77
2019-01-20T10:51:16.178Z,9.87
2019-01-20T10:53:47.149Z,8.30
2019-01-20T10:56:18.160Z,8.37
2019-01-20T10:58:49.144Z,9.23
2019-01-20T11:01:20.968Z,9.27
2019-01-20T11:03:52.149Z,8.40
2019-01-20T11:06:24.589Z,11.43
2019-01-20T11:08:55.954Z,7.67
2019-01-20T11:11:26.992Z,7.00
2019-01-20T11:13:58.397Z,7.67
2019-01-20T11:16:29.625Z,5.70
2019-01-20T11:19:01.828Z,6.50
2019-01-20T11:21:33.754Z,5.00
2019-01-20T11:24:05.018Z,3.60
2019-01-20T11:26:36.480Z,4.13
2019-01-20T11:29:07.746Z,2.90
2019-01-20T11:31:39.011Z,3.77
2019-01-20T11:34:10.395Z,2.87
2019-01-20T11:36:41.493Z,2.57
2019-01-20T11:39:12.727Z,3.37
2019-01-20T11:41:44.339Z,3.30
2019-01-20T11:44:17.131Z,5.50
2019-01-20T11:46:48.667Z,3.50
2019-01-20T11:49:19.782Z,2.70
2019-01-20T11:51:50.941Z,2.70
2019-01-20T11:54:21.935Z,3.03
2019-01-20T11:56:53.125Z,2.97
2019-01-20T11:59:23.786Z,2.90
2019-01-20T12:01:58.890Z,4.80
2019-01-20T12:04:29.731Z,2.53
2019-01-20T12:07:01.050Z,2.93
2019-01-20T12:09:32.314Z,5.00
2019-01-20T12:12:04.351Z,3.70
2019-01-20T12:14:35.222Z,4.40
2019-01-20T12:17:07.336Z,3.10
2019-01-20T12:19:38.716Z,3.90
2019-01-20T12:22:10.400Z,3.00
2019-01-20T12:24:41.645Z,4.33
2019-01-20T12:27:12.695Z,5.83
2019-01-20T12:29:44.026Z,3.60
2019-01-20T12:32:16.392Z,2.93
2019-01-20T12:34:47.697Z,3.83
2019-01-20T12:37:19.094Z,5.37
2019-01-20T12:39:50.624Z,4.17
2019-01-20T12:42:21.729Z,6.20
2019-01-20T12:44:53.243Z,6.20
2019-01-20T12:47:24.193Z,6.67
2019-01-20T12:49:55.258Z,5.77
2019-01-20T12:52:26.590Z,7.57
2019-01-20T12:54:57.656Z,10.10
2019-01-20T12:57:29.066Z,13.43
2019-01-20T13:00:00.280Z,9.40
2019-01-20T13:02:32.422Z,15.97
2019-01-20T13:05:03.689Z,12.70
2019-01-20T13:07:34.798Z,9.20
2019-01-20T13:10:07.512Z,13.87
2019-01-20T13:12:38.815Z,15.30
2019-01-20T13:15:11.880Z,15.23
2019-01-20T13:17:43.149Z,17.37
2019-01-20T13:20:16.551Z,15.97
2019-01-20T13:22:47.851Z,13.33
2019-01-20T13:25:23.346Z,13.37
2019-01-20T13:27:54.895Z,14.03
2019-01-20T13:30:27.756Z,16.40
2019-01-20T13:32:59.065Z,16.30
2019-01-20T13:35:30.782Z,18.20
2019-01-20T13:38:07.918Z,18.30
2019-01-20T13:41:07.113Z,12.87
2019-01-20T13:43:38.530Z,18.53
2019-01-20T13:46:09.728Z,16.50
2019-01-20T13:48:40.949Z,23.87
2019-01-20T13:51:12.153Z,16.50
2019-01-20T13:53:43.193Z,17.53
2019-01-20T13:56:16.992Z,19.20
2019-01-20T13:58:48.215Z,15.57
2019-01-20T14:01:20.417Z,19.37
2019-01-20T14:03:51.767Z,15.00
2019-01-20T14:06:23.031Z,19.07
2019-01-20T14:08:54.476Z,18.87
2019-01-20T14:11:25.579Z,20.73
2019-01-20T14:13:56.937Z,38.70
2019-01-20T14:16:28.037Z,18.27
2019-01-20T14:18:59.164Z,18.23
2019-01-20T14:21:29.891Z,17.53
2019-01-20T14:24:01.313Z,16.63
2019-01-20T14:26:32.557Z,13.53
2019-01-20T14:29:03.712Z,16.87
2019-01-20T14:31:34.942Z,15.67
2019-01-20T14:34:06.126Z,14.50
2019-01-20T14:36:37.245Z,13.43
2019-01-20T14:39:12.923Z,17.60
2019-01-20T14:41:44.118Z,12.37
2019-01-20T14:44:15.245Z,17.80
2019-01-20T14:46:46.486Z,17.87
2019-01-20T14:49:17.566Z,16.27
2019-01-20T14:51:48.672Z,15.50
2019-01-20T14:54:19.748Z,15.37
2019-01-20T14:56:52.357Z,13.63
2019-01-20T14:59:23.256Z,13.87
2019-01-20T15:01:54.375Z,17.50
2019-01-20T15:04:29.323Z,16.60
2019-01-20T15:07:00.568Z,17.97
2019-01-20T15:09:31.735Z,15.53
2019-01-20T15:12:03.023Z,17.83
2019-01-20T15:14:34.001Z,14.70
2019-01-20T15:17:05.256Z,12.00
2019-01-20T15:19:43.895Z,19.87
2019-01-20T15:22:15.234Z,14.60
2019-01-20T15:24:46.399Z,12.03
2019-01-20T15:27:18.337Z,14.40
2019-01-20T15:29:49.359Z,11.07
2019-01-20T15:32:20.814Z,9.77
2019-01-20T15:34:51.956Z,13.00
2019-01-20T15:37:22.844Z,12.83
2019-01-20T15:39:54.284Z,15.23
2019-01-20T15:42:24.925Z,14.50
2019-01-20T15:44:56.162Z,14.20
2019-01-20T15:47:27.466Z,20.60
2019-01-20T15:49:58.883Z,13.70
2019-01-20T15:52:29.662Z,13.27
2019-01-20T15:55:01.278Z,19.17
2019-01-20T15:57:32.794Z,15.37
2019-01-20T16:00:11.457Z,13.13
2019-01-20T16:02:42.770Z,12.83
2019-01-20T16:05:13.850Z,11.07
2019-01-20T16:07:44.802Z,12.07
2019-01-20T16:10:16.990Z,12.60
2019-01-20T16:12:48.380Z,26.23
2019-01-20T16:15:24.555Z,11.80
2019-01-20T16:17:55.936Z,11.77
2019-01-20T16:20:29.003Z,13.30
2019-01-20T16:23:01.066Z,8.90
2019-01-20T16:25:34.716Z,10.90
2019-01-20T16:28:06.543Z,12.10
2019-01-20T16:30:39.572Z,11.10
2019-01-20T16:33:10.667Z,16.37
2019-01-20T16:35:43.343Z,11.37
2019-01-20T16:38:14.570Z,12.13
2019-01-20T16:40:45.779Z,13.93
2019-01-20T16:43:28.695Z,14.23
2019-01-20T16:46:00.521Z,15.90
2019-01-20T16:48:31.234Z,14.20
2019-01-20T16:51:02.594Z,18.33
2019-01-20T16:53:33.813Z,11.77
2019-01-20T16:56:05.061Z,15.03
2019-01-20T16:58:36.289Z,13.40
2019-01-20T17:01:07.774Z,14.87
2019-01-20T17:03:40.022Z,20.82
2019-01-20T17:06:11.376Z,17.07
2019-01-20T17:08:42.660Z,19.50
2019-01-20T17:11:13.967Z,18.70
2019-01-20T17:13:45.139Z,19.10
2019-01-20T17:16:16.327Z,20.10
2019-01-20T17:18:47.530Z,16.73
2019-01-20T17:21:18.775Z,17.20
2019-01-20T17:23:49.951Z,19.57
2019-01-20T17:26:21.095Z,18.13
2019-01-20T17:28:52.426Z,21.10
2019-01-20T17:31:23.099Z,21.00
2019-01-20T17:33:54.140Z,17.17
2019-01-20T17:36:25.005Z,18.40
2019-01-20T17:38:56.348Z,16.03
2019-01-20T17:41:27.356Z,18.57
2019-01-20T17:43:58.639Z,17.83
2019-01-20T17:46:29.998Z,19.93
2019-01-20T17:49:01.283Z,32.57
2019-01-20T17:51:37.206Z,15.27
2019-01-20T17:54:08.815Z,21.00
2019-01-20T17:56:40.448Z,16.90
2019-01-20T17:59:11.779Z,15.87
2019-01-20T18:01:43.379Z,15.93
2019-01-20T18:04:14.852Z,20.60
2019-01-20T18:06:51.140Z,17.23
2019-01-20T18:09:22.461Z,18.10
2019-01-20T18:11:54.125Z,17.33
2019-01-20T18:14:25.380Z,15.33
2019-01-20T18:16:56.659Z,19.47
2019-01-20T18:19:29.498Z,18.77
2019-01-20T18:22:02.077Z,16.60
2019-01-20T18:24:33.722Z,15.85
2019-01-20T18:27:05.028Z,20.53
2019-01-20T18:29:35.941Z,16.00
2019-01-20T18:32:07.207Z,20.80
2019-01-20T18:34:38.306Z,16.30
2019-01-20T18:37:09.368Z,19.90
2019-01-20T18:39:40.566Z,15.80
2019-01-20T18:42:12.283Z,19.10
2019-01-20T18:44:43.529Z,18.10
2019-01-20T18:47:13.884Z,18.63
2019-01-20T18:49:44.771Z,19.27
2019-01-20T18:52:16.392Z,19.10
2019-01-20T18:54:47.734Z,16.63
2019-01-20T18:57:18.981Z,17.13
2019-01-20T18:59:49.964Z,21.43
2019-01-20T19:02:21.111Z,16.83
2019-01-20T19:04:52.350Z,19.40
2019-01-20T19:07:23.371Z,24.52
2019-01-20T19:09:54.559Z,21.27
2019-01-20T19:12:27.013Z,20.80
2019-01-20T19:14:58.235Z,24.07
2019-01-20T19:17:29.456Z,23.67
2019-01-20T19:20:00.589Z,20.03
2019-01-20T19:22:31.398Z,19.57
2019-01-20T19:25:04.310Z,18.43
2019-01-20T19:27:36.030Z,17.47
2019-01-20T19:30:10.506Z,18.87
2019-01-20T19:32:41.769Z,18.70
2019-01-20T19:35:13.424Z,22.07
2019-01-20T19:37:46.073Z,20.17
2019-01-20T19:40:20.666Z,19.37
2019-01-20T19:42:52.008Z,18.00
2019-01-20T19:45:23.108Z,16.27
2019-01-20T19:47:54.402Z,18.50
2019-01-20T19:50:25.533Z,22.10
2019-01-20T19:52:56.504Z,21.97
2019-01-20T19:55:29.436Z,16.10
2019-01-20T19:58:00.609Z,20.60
2019-01-20T20:00:33.039Z,26.20
2019-01-20T20:03:06.348Z,19.57
2019-01-20T20:05:37.454Z,17.17
2019-01-20T20:08:08.975Z,21.87
2019-01-20T20:10:40.065Z,18.87
2019-01-20T20:13:11.273Z,25.20
2019-01-20T20:15:42.423Z,28.70
2019-01-20T20:18:13.855Z,22.50
2019-01-20T20:20:44.651Z,25.73
2019-01-20T20:23:15.833Z,22.03
2019-01-20T20:25:46.832Z,22.90
2019-01-20T20:28:18.576Z,26.07
2019-01-20T20:30:49.726Z,25.40
2019-01-20T20:33:20.911Z,23.17
2019-01-20T20:35:52.051Z,20.47
2019-01-20T20:38:23.433Z,22.13
2019-01-20T20:40:57.235Z,23.27
2019-01-20T20:43:28.367Z,23.63
2019-01-20T20:45:59.459Z,19.60
2019-01-20T20:48:30.511Z,20.97
2019-01-20T20:51:01.646Z,19.10
2019-01-20T20:54:16.011Z,25.10
2019-01-20T20:56:47.243Z,21.30
2019-01-20T20:59:19.202Z,24.90
2019-01-20T21:01:50.763Z,20.23
2019-01-20T21:04:21.887Z,19.87
2019-01-20T21:06:55.773Z,25.43
2019-01-20T21:09:31.121Z,21.20
2019-01-20T21:12:02.920Z,24.93
2019-01-20T21:14:35.491Z,21.77
2019-01-20T21:17:07.559Z,19.63
2019-01-20T21:19:39.070Z,20.73
2019-01-20T21:22:11.855Z,38.27
2019-01-20T21:24:43.552Z,24.23
2019-01-20T21:27:14.570Z,18.67
2019-01-20T21:29:45.752Z,21.20
2019-01-20T21:32:17.474Z,18.30
2019-01-20T21:34:49.777Z,19.02
2019-01-20T21:37:21.954Z,16.73
2019-01-20T21:39:54.347Z,17.00
2019-01-20T21:42:26.481Z,15.57
2019-01-20T21:44:57.815Z,18.13
2019-01-20T21:47:29.315Z,16.97
2019-01-20T21:50:00.556Z,25.57
2019-01-20T21:52:32.931Z,17.90
2019-01-20T21:55:04.468Z,16.83
2019-01-20T21:57:36.329Z,26.73
2019-01-20T22:00:09.771Z,18.57
2019-01-20T22:02:41.256Z,13.17
2019-01-20T22:05:13.605Z,15.53
2019-01-20T22:07:44.638Z,15.43
2019-01-20T22:10:17.678Z,21.50
2019-01-20T22:12:50.299Z,15.07
2019-01-20T22:15:21.612Z,13.80
2019-01-20T22:17:52.992Z,13.17
2019-01-20T22:20:24.563Z,11.60
2019-01-20T22:22:55.699Z,14.67
2019-01-20T22:25:27.005Z,14.23
2019-01-20T22:27:59.143Z,13.00
2019-01-20T22:30:30.456Z,15.97
2019-01-20T22:33:01.253Z,12.60
2019-01-20T22:35:32.166Z,15.70
2019-01-20T22:38:03.240Z,13.80
2019-01-20T22:40:35.606Z,16.53
2019-01-20T22:43:06.718Z,10.70
2019-01-20T22:45:37.942Z,11.03
2019-01-20T22:48:09.391Z,10.00
2019-01-20T22:50:40.639Z,15.20
2019-01-20T22:53:11.826Z,16.67
2019-01-20T22:55:43.153Z,14.50
2019-01-20T22:58:14.186Z,13.50
2019-01-20T23:00:58.756Z,13.87
2019-01-20T23:03:40.095Z,15.33
2019-01-20T23:06:11.294Z,14.63
2019-01-20T23:08:42.479Z,10.93
2019-01-20T23:11:13.661Z,16.10
2019-01-20T23:13:44.779Z,12.20
2019-01-20T23:16:15.957Z,13.60
2019-01-20T23:18:47.068Z,12.03
2019-01-20T23:21:18.344Z,15.83
2019-01-20T23:23:49.726Z,12.10
2019-01-20T23:26:20.813Z,24.67
2019-01-20T23:28:55.331Z,11.73
2019-01-20T23:31:26.396Z,15.13
2019-01-20T23:33:57.423Z,13.30
2019-01-20T23:36:28.183Z,15.23
2019-01-20T23:38:59.110Z,13.87
2019-01-20T23:41:29.856Z,16.07
2019-01-20T23:44:01.098Z,14.50
2019-01-20T23:46:34.469Z,16.30
2019-01-20T23:49:05.681Z,11.83
2019-01-20T23:51:36.720Z,14.67
2019-01-20T23:54:07.724Z,14.60
2019-01-20T23:56:38.933Z,18.60
2019-01-20T23:59:09.936Z,12.20
